.
WxDataArchive / Data Records for 2015-09-09
2015-09-08 September 2015 2015-09-10

Data Records for Wednesday, 09 September 2015

Time	Temp	Chill	HIndex	Humid	Dewpt	 Wind 	HiWind	WindDir	Rain 	Barom
-----	----	-----	------	-----	-----	------	------	-------	-----	-----
00:00	72.7	72.7	72.7	82	66.9	0	1	292	0.00	29.814 
00:05	72.7	72.7	72.7	82	66.9	0	1	292	0.00	29.814 
00:10	72.8	72.8	72.8	82	67.0	0	1	292	0.00	29.814 
00:15	72.8	72.8	72.8	82	67.0	0	1	292	0.00	29.814 
00:20	72.8	72.8	72.8	83	67.3	0	1	292	0.00	29.814 
00:25	72.7	72.7	72.7	82	66.9	0	3	292	0.00	29.814 
00:30	72.7	72.7	72.7	82	66.9	0	2	292	0.00	29.815 
00:35	72.7	72.7	72.7	81	66.5	0	2	292	0.00	29.815 
00:40	72.7	72.7	72.7	81	66.5	0	1	292	0.00	29.815 
00:45	72.7	72.7	72.7	81	66.5	0	1	292	0.00	29.820 
00:50	72.7	72.7	72.7	82	66.9	0	2	292	0.00	29.820 
00:55	72.5	72.5	72.5	81	66.3	1	3	292	0.00	29.820 
01:00	72.5	72.5	72.5	82	66.7	1	2	292	0.00	29.823 
01:05	72.3	72.3	72.3	82	66.5	0	2	292	0.00	29.823 
01:10	72.3	72.3	72.3	82	66.5	0	1	292	0.00	29.823 
01:15	72.1	72.1	72.1	83	66.6	0	1	292	0.00	29.825 
01:20	71.8	71.8	71.8	84	66.7	0	1	292	0.01	29.825 
01:25	71.6	71.6	71.6	85	66.8	0	1	292	0.00	29.825 
01:30	71.3	71.3	71.3	85	66.5	0	1	292	0.00	29.822 
01:35	71.1	71.1	71.1	86	66.7	0	1	292	0.00	29.822 
01:40	70.9	70.9	70.9	87	66.8	0	1	292	0.00	29.822 
01:45	70.8	70.8	70.8	87	66.7	0	1	292	0.00	29.825 
01:50	70.8	70.8	70.8	87	66.7	0	1	292	0.00	29.825 
01:55	70.8	70.8	70.8	88	67.1	0	1	292	0.00	29.825 
02:00	70.8	70.8	70.8	88	67.1	0	1	292	0.00	29.828 
02:05	70.6	70.6	70.6	88	66.9	0	0	---	0.00	29.828 
02:10	70.6	70.6	70.6	88	66.9	0	1	292	0.00	29.828 
02:15	70.6	70.6	70.6	88	66.9	0	0	---	0.00	29.827 
02:20	70.6	70.6	70.6	88	66.9	0	0	---	0.00	29.827 
02:25	70.4	70.4	70.4	88	66.7	0	0	---	0.00	29.827 
02:30	70.4	70.4	70.4	88	66.7	0	2	292	0.00	29.830 
02:35	70.4	70.4	70.4	88	66.7	0	1	292	0.00	29.830 
02:40	70.4	70.4	70.4	88	66.7	0	3	292	0.00	29.830 
02:45	70.6	70.6	70.6	88	66.9	0	1	292	0.00	29.828 
02:50	70.6	70.6	70.6	88	66.9	0	2	292	0.00	29.828 
02:55	70.6	70.6	70.6	88	66.9	0	2	292	0.00	29.828 
03:00	70.6	70.6	70.6	88	66.9	0	3	292	0.00	29.829 
03:05	70.6	70.6	70.6	88	66.9	1	3	292	0.00	29.829 
03:10	70.8	70.8	70.8	88	67.1	0	1	292	0.00	29.829 
03:15	70.8	70.8	70.8	88	67.1	0	2	292	0.00	29.829 
03:20	70.8	70.8	70.8	88	67.1	0	1	292	0.00	29.829 
03:25	70.8	70.8	70.8	88	67.1	0	1	292	0.00	29.829 
03:30	70.6	70.6	70.6	88	66.9	0	1	292	0.00	29.828 
03:35	70.6	70.6	70.6	88	66.9	0	1	292	0.00	29.828 
03:40	70.6	70.6	70.6	88	66.9	0	1	292	0.00	29.828 
03:45	70.6	70.6	70.6	88	66.9	0	1	292	0.00	29.827 
03:50	70.6	70.6	70.6	88	66.9	0	0	---	0.00	29.827 
03:55	70.4	70.4	70.4	89	67.0	0	1	292	0.00	29.827 
04:00	70.4	70.4	70.4	89	67.0	0	0	---	0.00	29.829 
04:05	70.4	70.4	70.4	89	67.0	0	1	292	0.00	29.829 
04:10	70.4	70.4	70.4	89	67.0	0	1	292	0.00	29.829 
04:15	70.3	70.3	70.3	89	66.9	0	0	---	0.00	29.830 
04:20	70.3	70.3	70.3	89	66.9	0	0	---	0.00	29.830 
04:25	70.3	70.3	70.3	89	66.9	0	1	292	0.00	29.830 
04:30	70.3	70.3	70.3	90	67.2	0	1	292	0.00	29.835 
04:35	70.3	70.3	70.3	90	67.2	0	0	---	0.00	29.835 
04:40	70.3	70.3	70.3	90	67.2	0	1	292	0.00	29.835 
04:45	70.3	70.3	70.3	90	67.2	0	1	292	0.00	29.834 
04:50	70.3	70.3	70.3	90	67.2	0	1	292	0.00	29.834 
04:55	70.3	70.3	70.3	90	67.2	0	1	292	0.00	29.834 
05:00	70.4	70.4	70.4	90	67.3	0	1	292	0.00	29.841 
05:05	70.4	70.4	70.4	90	67.3	0	1	292	0.00	29.841 
05:10	70.4	70.4	70.4	90	67.3	0	1	292	0.00	29.841 
05:15	70.4	70.4	70.4	90	67.3	0	1	292	0.00	29.844 
05:20	70.4	70.4	70.4	90	67.3	0	2	292	0.00	29.844 
05:25	70.4	70.4	70.4	90	67.3	0	1	292	0.00	29.844 
05:30	70.3	70.3	70.3	90	67.2	0	1	292	0.00	29.846 
05:35	70.3	70.3	70.3	90	67.2	1	4	292	0.00	29.846 
05:40	70.3	70.3	70.3	90	67.2	1	3	292	0.00	29.846 
05:45	70.3	70.3	70.3	90	67.2	0	1	292	0.00	29.848 
05:50	70.3	70.3	70.3	90	67.2	0	1	292	0.00	29.848 
05:55	70.1	70.1	70.1	90	67.0	1	2	292	0.00	29.848 
06:00	70.1	70.1	70.1	90	67.0	0	2	292	0.00	29.853 
06:05	69.9	69.9	69.9	90	66.8	0	2	292	0.00	29.853 
06:10	69.9	69.9	69.9	90	66.8	0	3	292	0.00	29.853 
06:15	69.8	69.8	69.8	89	66.4	0	2	292	0.00	29.853 
06:20	69.6	69.6	69.6	89	66.2	1	2	292	0.00	29.853 
06:25	69.4	69.4	69.4	88	65.7	0	2	292	0.00	29.853 
06:30	69.4	69.4	69.4	88	65.7	0	3	292	0.00	29.850 
06:35	69.3	69.3	69.3	87	65.3	0	2	292	0.00	29.850 
06:40	69.1	69.1	69.1	87	65.1	0	2	292	0.00	29.850 
06:45	69.1	69.1	69.1	86	64.7	1	5	338	0.00	29.857 
06:50	68.9	68.9	68.9	86	64.5	0	1	338	0.00	29.857 
06:55	68.9	68.9	68.9	86	64.5	0	2	338	0.00	29.857 
07:00	68.8	68.8	68.8	86	64.4	1	4	338	0.00	29.862 
07:05	68.8	68.8	68.8	86	64.4	0	1	315	0.00	29.862 
07:10	68.6	68.6	68.6	86	64.2	1	2	315	0.00	29.862 
07:15	68.4	68.4	68.4	86	64.0	0	1	315	0.00	29.867 
07:20	68.4	68.4	68.4	86	64.0	0	3	315	0.00	29.867 
07:25	68.4	68.4	68.4	87	64.4	0	2	315	0.00	29.867 
07:30	68.3	68.3	68.3	87	64.3	0	1	315	0.00	29.884 
07:35	68.3	68.3	68.3	87	64.3	0	2	315	0.00	29.884 
07:40	68.1	68.1	68.1	87	64.1	0	2	315	0.00	29.884 
07:45	68.1	68.1	68.1	87	64.1	1	3	315	0.00	29.897 
07:50	68.1	68.1	68.1	88	64.4	0	1	315	0.00	29.897 
07:55	67.9	67.9	67.9	88	64.2	0	1	315	0.00	29.897 
08:00	67.9	67.9	67.9	88	64.2	0	2	315	0.00	29.903 
08:05	67.9	67.9	67.9	88	64.2	0	2	315	0.00	29.903 
08:10	67.9	67.9	67.9	88	64.2	0	1	315	0.00	29.903 
08:15	67.8	67.8	67.8	88	64.1	0	2	315	0.00	29.920 
08:20	67.8	67.8	67.8	88	64.1	0	3	315	0.00	29.920 
08:25	67.9	67.9	67.9	88	64.2	0	2	315	0.00	29.920 
08:30	67.9	67.9	67.9	88	64.2	0	2	315	0.00	29.920 
08:35	67.8	67.8	67.8	88	64.1	0	2	315	0.00	29.920 
08:40	67.8	67.8	67.8	88	64.1	0	1	315	0.00	29.920 
08:45	67.9	67.9	67.9	88	64.2	0	0	---	0.00	29.920 
08:50	67.9	67.9	67.9	88	64.2	0	1	315	0.00	29.920 
08:55	68.1	68.1	68.1	88	64.4	0	1	315	0.00	29.920 
09:00	68.1	68.1	68.1	88	64.4	0	1	315	0.00	29.920 
09:05	68.1	68.1	68.1	88	64.4	0	0	---	0.00	29.920 
09:10	68.3	68.3	68.3	88	64.6	0	3	315	0.00	29.920 
09:15	68.3	68.3	68.3	87	64.3	0	2	315	0.00	29.917 
09:20	68.4	68.4	68.4	87	64.4	0	3	0	0.00	29.917 
09:25	68.6	68.6	68.6	87	64.6	0	0	---	0.00	29.917 
09:30	68.6	68.6	68.6	86	64.2	0	2	0	0.00	29.912 
09:35	68.6	68.6	68.6	86	64.2	0	3	0	0.00	29.912 
09:40	68.8	68.8	68.8	86	64.4	0	1	0	0.00	29.912 
09:45	68.8	68.8	68.8	86	64.4	0	2	90	0.00	29.916 
09:50	68.9	68.9	68.9	85	64.2	0	1	90	0.00	29.916 
09:55	68.9	68.9	68.9	85	64.2	0	1	90	0.00	29.916 
10:00	69.1	69.1	69.1	85	64.4	0	1	90	0.00	29.921 
10:05	69.3	69.3	69.3	84	64.2	0	2	90	0.00	29.921 
10:10	69.3	69.3	69.3	84	64.2	0	4	90	0.00	29.921 
10:15	69.4	69.4	69.4	84	64.3	0	1	90	0.00	29.922 
10:20	69.6	69.6	69.6	84	64.5	0	1	90	0.00	29.922 
10:25	69.8	69.8	69.8	84	64.7	0	1	90	0.00	29.922 
10:30	69.8	69.8	69.8	83	64.4	0	3	90	0.00	29.921 
10:35	69.9	69.9	69.9	83	64.5	0	1	90	0.00	29.921 
10:40	70.1	70.1	70.1	82	64.3	0	1	90	0.00	29.921 
10:45	70.3	70.3	70.3	82	64.5	0	1	90	0.00	29.922 
10:50	70.4	70.4	70.4	82	64.6	0	1	90	0.00	29.922 
10:55	70.8	70.8	70.8	81	64.7	0	1	90	0.00	29.922 
11:00	70.8	70.8	70.8	80	64.3	0	2	90	0.00	29.929 
11:05	70.8	70.8	70.8	81	64.7	0	1	90	0.00	29.929 
11:10	70.9	70.9	70.9	81	64.8	0	1	90	0.00	29.929 
11:15	71.1	71.1	71.1	80	64.6	0	3	90	0.00	29.930 
11:20	71.3	71.3	71.3	80	64.8	1	3	90	0.00	29.930 
11:25	71.3	71.3	71.3	79	64.4	0	2	90	0.00	29.930 
11:30	71.5	71.5	71.5	79	64.6	0	1	90	0.00	29.931 
11:35	71.6	71.6	71.6	78	64.4	0	2	90	0.00	29.931 
11:40	71.6	71.6	71.6	78	64.4	0	1	90	0.00	29.931 
11:45	71.6	71.6	71.6	79	64.7	0	1	90	0.00	29.934 
11:50	71.6	71.6	71.6	78	64.4	0	1	90	0.00	29.934 
11:55	71.8	71.8	71.8	78	64.6	0	1	90	0.00	29.934 
12:00	71.8	71.8	71.8	79	64.9	0	1	90	0.00	29.933 
12:05	72.1	72.1	72.1	78	64.8	0	1	90	0.00	29.933 
12:10	72.3	72.3	72.3	78	65.0	0	2	90	0.00	29.933 
12:15	72.1	72.1	72.1	77	64.5	1	3	90	0.00	29.932 
12:20	72.3	72.3	72.3	77	64.7	1	2	90	0.00	29.932 
12:25	72.1	72.1	72.1	77	64.5	1	4	292	0.00	29.932 
12:30	72.3	72.3	72.3	78	65.0	0	2	292	0.00	29.930 
12:35	72.1	72.1	72.1	77	64.5	1	3	292	0.00	29.930 
12:40	72.1	72.1	72.1	77	64.5	0	2	292	0.00	29.930 
12:45	72.1	72.1	72.1	78	64.8	0	3	292	0.00	29.931 
12:50	72.1	72.1	72.1	77	64.5	0	2	292	0.00	29.931 
12:55	72.1	72.1	72.1	78	64.8	0	1	292	0.00	29.931 
13:00	72.1	72.1	72.1	77	64.5	0	4	292	0.00	29.930 
13:05	72.1	72.1	72.1	77	64.5	0	1	292	0.00	29.930 
13:10	72.3	72.3	72.3	77	64.7	0	2	292	0.00	29.930 
13:15	72.5	72.5	72.5	78	65.2	0	2	292	0.00	29.928 
13:20	72.5	72.5	72.5	77	64.9	1	4	292	0.00	29.928 
13:25	72.5	72.5	72.5	76	64.5	0	1	292	0.00	29.928 
13:30	72.7	72.7	72.7	76	64.7	0	3	292	0.00	29.926 
13:35	72.8	72.8	72.8	76	64.8	0	3	292	0.00	29.926 
13:40	73.0	73.0	73.0	76	65.0	0	2	292	0.00	29.926 
13:45	73.2	73.2	73.2	75	64.8	0	1	292	0.00	29.929 
13:50	73.2	73.2	73.2	75	64.8	0	1	292	0.00	29.929 
13:55	73.2	73.2	73.2	75	64.8	0	1	292	0.00	29.929 
14:00	73.2	73.2	73.2	75	64.8	0	2	292	0.00	29.927 
14:05	73.2	73.2	73.2	75	64.8	0	1	292	0.00	29.927 
14:10	73.3	73.3	73.3	75	64.9	0	1	292	0.00	29.927 
14:15	73.7	73.7	73.7	75	65.3	0	2	292	0.00	29.927 
14:20	73.7	73.7	73.7	74	64.9	0	2	292	0.00	29.927 
14:25	73.7	73.7	73.7	74	64.9	1	4	292	0.00	29.927 
14:30	73.9	73.9	73.9	74	65.1	0	1	292	0.00	29.923 
14:35	73.9	73.9	73.9	73	64.7	0	2	292	0.00	29.923 
14:40	74.2	74.2	74.2	73	65.0	0	1	292	0.00	29.923 
14:45	74.0	74.0	74.0	73	64.8	1	3	292	0.00	29.920 
14:50	74.0	74.0	74.0	73	64.8	1	4	292	0.00	29.920 
14:55	74.2	74.2	74.2	73	65.0	0	2	315	0.00	29.920 
15:00	74.2	74.2	74.2	71	64.2	1	3	315	0.00	29.919 
15:05	74.2	74.2	74.2	72	64.6	0	2	315	0.00	29.919 
15:10	74.2	74.2	74.2	71	64.2	1	4	315	0.00	29.919 
15:15	74.4	74.4	74.4	72	64.8	1	2	315	0.00	29.909 
15:20	74.6	74.6	74.6	72	65.0	0	3	315	0.00	29.909 
15:25	74.6	74.6	74.6	72	65.0	0	2	315	0.00	29.909 
15:30	74.9	74.9	74.9	70	64.4	1	4	315	0.00	29.908 
15:35	74.7	74.7	74.7	71	64.7	1	3	315	0.00	29.908 
15:40	74.7	74.7	74.7	71	64.7	1	3	315	0.00	29.908 
15:45	74.7	74.7	74.7	70	64.2	0	2	315	0.00	29.903 
15:50	74.7	74.7	74.7	70	64.2	0	3	315	0.00	29.903 
15:55	74.9	74.9	74.9	69	64.0	1	3	315	0.00	29.903 
16:00	74.7	74.7	74.7	70	64.2	0	1	315	0.00	29.903 
16:05	74.7	74.7	74.7	68	63.4	1	4	315	0.00	29.903 
16:10	74.6	74.6	74.6	67	62.9	1	3	315	0.00	29.903 
16:15	74.6	74.6	74.6	68	63.3	0	3	315	0.00	29.901 
16:20	74.6	74.6	74.6	67	62.9	0	1	315	0.00	29.901 
16:25	74.7	74.7	74.7	68	63.4	0	2	315	0.00	29.901 
16:30	74.7	74.7	74.7	68	63.4	0	2	315	0.00	29.893 
16:35	74.7	74.7	74.7	68	63.4	1	3	315	0.00	29.893 
16:40	74.7	74.7	74.7	67	63.0	1	3	315	0.00	29.893 
16:45	74.7	74.7	74.7	68	63.4	0	2	315	0.00	29.898 
16:50	74.7	74.7	74.7	68	63.4	0	3	315	0.00	29.898 
16:55	74.9	74.9	74.9	67	63.2	0	2	315	0.00	29.898 
17:00	74.9	74.9	74.9	68	63.6	0	1	315	0.00	29.890 
17:05	74.9	74.9	74.9	69	64.0	0	2	315	0.00	29.890 
17:10	74.9	74.9	74.9	68	63.6	0	1	315	0.00	29.890 
17:15	74.9	74.9	74.9	67	63.2	0	2	315	0.00	29.888 
17:20	75.1	75.1	76.9	68	63.8	0	1	315	0.00	29.888 
17:25	75.1	75.1	77.0	67	63.4	0	1	315	0.00	29.888 
17:30	75.3	75.3	77.2	67	63.6	0	2	315	0.00	29.885 
17:35	75.3	75.3	77.2	66	63.1	1	5	112	0.00	29.885 
17:40	75.1	75.1	77.1	65	62.5	0	1	112	0.00	29.885 
17:45	75.1	75.1	77.1	65	62.5	0	1	112	0.00	29.884 
17:50	75.1	75.1	77.1	65	62.5	0	1	112	0.00	29.884 
17:55	74.9	74.9	74.9	65	62.3	0	1	112	0.00	29.884 
18:00	74.9	74.9	74.9	65	62.3	0	1	112	0.00	29.884 
18:05	74.7	74.7	74.7	64	61.7	0	2	112	0.00	29.884 
18:10	74.6	74.6	74.6	64	61.6	0	1	112	0.00	29.884 
18:15	74.6	74.6	74.6	63	61.2	1	2	112	0.00	29.884 
18:20	74.4	74.4	74.4	63	61.0	0	1	112	0.00	29.884 
18:25	74.6	74.6	74.6	64	61.6	0	1	112	0.00	29.884 
18:30	74.6	74.6	74.6	63	61.2	0	2	112	0.00	29.883 
18:35	74.7	74.7	74.7	63	61.2	0	1	112	0.00	29.883 
18:40	74.7	74.7	74.7	62	60.8	0	2	112	0.00	29.883 
18:45	74.7	74.7	74.7	63	61.2	0	1	112	0.00	29.886 
18:50	74.6	74.6	74.6	63	61.2	0	3	112	0.00	29.886 
18:55	74.4	74.4	74.4	64	61.4	0	0	---	0.00	29.886 
19:00	74.2	74.2	74.2	64	61.2	0	1	90	0.00	29.891 
19:05	74.0	74.0	74.0	64	61.0	0	1	90	0.00	29.891 
19:10	73.9	73.9	73.9	64	60.9	0	0	---	0.00	29.891 
19:15	73.7	73.7	73.7	65	61.2	0	0	---	0.00	29.893 
19:20	73.5	73.5	73.5	66	61.4	0	0	---	0.00	29.893 
19:25	73.3	73.3	73.3	66	61.2	0	0	---	0.00	29.893 
19:30	73.2	73.2	73.2	67	61.6	0	0	---	0.00	29.894 
19:35	72.8	72.8	72.8	68	61.6	0	0	---	0.00	29.894 
19:40	72.7	72.7	72.7	68	61.5	0	0	---	0.00	29.894 
19:45	72.5	72.5	72.5	69	61.7	0	0	---	0.00	29.891 
19:50	72.3	72.3	72.3	69	61.5	0	0	---	0.00	29.891 
19:55	72.1	72.1	72.1	70	61.8	0	1	90	0.00	29.891 
20:00	72.0	72.0	72.0	70	61.7	0	0	---	0.00	29.894 
20:05	71.8	71.8	71.8	71	61.9	0	1	90	0.00	29.894 
20:10	71.6	71.6	71.6	72	62.1	0	1	90	0.00	29.894 
20:15	71.5	71.5	71.5	72	62.0	0	1	90	0.00	29.901 
20:20	71.3	71.3	71.3	73	62.2	0	0	---	0.00	29.901 
20:25	71.1	71.1	71.1	73	62.0	0	0	---	0.00	29.901 
20:30	70.9	70.9	70.9	74	62.2	0	0	---	0.00	29.907 
20:35	70.8	70.8	70.8	75	62.5	0	0	---	0.00	29.907 
20:40	70.4	70.4	70.4	75	62.1	0	1	90	0.00	29.907 
20:45	70.4	70.4	70.4	76	62.5	0	1	90	0.00	29.908 
20:50	70.3	70.3	70.3	76	62.4	0	1	90	0.00	29.908 
20:55	70.1	70.1	70.1	77	62.5	0	0	---	0.00	29.908 
21:00	69.9	69.9	69.9	77	62.3	0	1	90	0.00	29.911 
21:05	69.8	69.8	69.8	77	62.3	0	1	90	0.00	29.911 
21:10	69.6	69.6	69.6	78	62.4	0	0	---	0.00	29.911 
21:15	69.4	69.4	69.4	78	62.2	0	0	---	0.00	29.911 
21:20	69.4	69.4	69.4	79	62.6	0	0	---	0.00	29.911 
21:25	69.3	69.3	69.3	79	62.5	0	0	---	0.00	29.911 
21:30	69.1	69.1	69.1	79	62.3	0	0	---	0.00	29.913 
21:35	68.9	68.9	68.9	80	62.5	0	0	---	0.00	29.913 
21:40	68.8	68.8	68.8	80	62.4	0	0	---	0.00	29.913 
21:45	68.6	68.6	68.6	81	62.5	0	0	---	0.00	29.920 
21:50	68.4	68.4	68.4	81	62.3	0	0	---	0.00	29.920 
21:55	68.3	68.3	68.3	81	62.2	0	0	---	0.00	29.920 
22:00	68.1	68.1	68.1	81	62.0	0	0	---	0.00	29.924 
22:05	68.1	68.1	68.1	82	62.4	0	0	---	0.00	29.924 
22:10	67.8	67.8	67.8	82	62.1	0	0	---	0.00	29.924 
22:15	67.6	67.6	67.6	82	61.9	0	0	---	0.00	29.923 
22:20	67.4	67.4	67.4	83	62.0	0	0	---	0.00	29.923 
22:25	67.3	67.3	67.3	83	62.0	0	0	---	0.00	29.923 
22:30	67.3	67.3	67.3	84	62.3	0	0	---	0.00	29.924 
22:35	67.1	67.1	67.1	84	62.1	0	0	---	0.00	29.924 
22:40	66.9	66.9	66.9	84	61.9	0	0	---	0.00	29.924 
22:45	66.8	66.8	66.8	84	61.8	0	0	---	0.00	29.923 
22:50	66.6	66.6	66.6	84	61.6	0	0	---	0.00	29.923 
22:55	66.4	66.4	66.4	85	61.7	0	0	---	0.00	29.923 
23:00	66.3	66.3	66.3	85	61.6	0	0	---	0.00	29.923 
23:05	66.1	66.1	66.1	85	61.5	0	0	---	0.00	29.923 
23:10	66.0	66.0	66.0	85	61.4	0	0	---	0.00	29.923 
23:15	66.0	66.0	66.0	85	61.4	0	0	---	0.00	29.924 
23:20	65.8	65.8	65.8	85	61.2	0	0	---	0.00	29.924 
23:25	65.6	65.6	65.6	85	61.0	0	0	---	0.00	29.924 
23:30	65.5	65.5	65.5	86	61.2	0	0	---	0.00	29.922 
23:35	65.3	65.3	65.3	85	60.7	0	1	90	0.00	29.922 
23:40	65.3	65.3	65.3	85	60.7	0	0	---	0.00	29.922 
23:45	65.2	65.2	65.2	85	60.6	0	0	---	0.00	29.924 
23:50	65.2	65.2	65.2	84	60.2	0	0	---	0.00	29.924 
23:55	65.2	65.2	65.2	84	60.2	0	0	---	0.00	29.924 

CoCoRaHS
IN-AL-39
A2 Web Hosting
Creative Commons License
GoDaddy
search engine by freefind advanced

loaded 2018-11-16 01:02:43 • last modified 2010-11-18 10:43:29
Privacy PolicyDisclaimer
• wx.awcolley.com is powered by PmWiki v.2002016 •
• all content (unless otherwise noted) © 2018 A W Colley